Arpin, Wisconsin
Current Conditions -  °F | °C
As of 11:54 PM on Tuesday 27 Jan 2015 (Local Time) from KMFI Reporting Station
Haze Haze  
Wind Chill: 17°   Ceiling: 600
Heat Index: 25°   Visibility: 4mi
Dew Point: 22°   Wind: 7mph
Humidity: 88%   Direction: 160°SSE
Pressure: 30.18"   Gusts: NA
Location:  44.54°N, 90.04°W
Report Text: KMFI 280554Z AUTO 16006KT 4SM BR OVC006 M04/M06 A3018 RMK AO2 SLP240 T10391056 11039 21044 410331050 57004
Loading
Personal Weather Stations






























Interactive Weather Map New forecast layout! Learn more

10-Day Weather Forecast

Advertisements
Track Severe Weather on mobile